Observation data for Brownfield on 01/10/2018      Previous  Date  Next       Current Mesonet Observations  Soil Data  Daily Summary Page  Observations in Plain Language
KBWS 100600Z 22011KT 09/M01 A2988 RMK A01 T00901010  RH  050%=      5-min Rain = 0
KBWS 100605Z 22011KT 09/M01 A2988 RMK A01 T00881009  RH  051%=      5-min Rain = 0
KBWS 100610Z 22010KT 09/M01 A2987 RMK A01 T00871010  RH  051%=      5-min Rain = 0
KBWS 100615Z 21010KT 09/M01 A2986 RMK A01 T00891008  RH  051%=      5-min Rain = 0
KBWS 100620Z 21010KT 09/M01 A2986 RMK A01 T00911007  RH  051%=      5-min Rain = 0
KBWS 100625Z 22010KT 09/M01 A2986 RMK A01 T00911006  RH  051%=      5-min Rain = 0
KBWS 100630Z 22011KT 09/M01 A2986 RMK A01 T00931006  RH  050%=      5-min Rain = 0
KBWS 100635Z 21011KT 09/M01 A2986 RMK A01 T00931006  RH  051%=      5-min Rain = 0
KBWS 100640Z 22012KT 09/M01 A2986 RMK A01 T00941006  RH  050%=      5-min Rain = 0
KBWS 100645Z 21011KT 09/M01 A2986 RMK A01 T00911007  RH  051%=      5-min Rain = 0
KBWS 100650Z 22009KT 09/M01 A2986 RMK A01 T00891008  RH  051%=      5-min Rain = 0
KBWS 100655Z 22008KT 08/M01 A2986 RMK A01 T00821009  RH  053%=      5-min Rain = 0
KBWS 100700Z 22008KT 08/M01 A2986 RMK A01 T00771011  RH  055%=      5-min Rain = 0
KBWS 100705Z 22010KT 07/M01 A2986 RMK A01 T00731011  RH  056%=      5-min Rain = 0
KBWS 100710Z 22010KT 07/M01 A2986 RMK A01 T00721011  RH  056%=      5-min Rain = 0
KBWS 100715Z 22010KT 07/M01 A2986 RMK A01 T00681012  RH  057%=      5-min Rain = 0
KBWS 100720Z 22010KT 07/M01 A2986 RMK A01 T00681011  RH  057%=      5-min Rain = 0
KBWS 100725Z 22010KT 07/M01 A2985 RMK A01 T00711010  RH  057%=      5-min Rain = 0
KBWS 100730Z 22010KT 07/M01 A2985 RMK A01 T00741010  RH  056%=      5-min Rain = 0
KBWS 100735Z 22010KT 07/M01 A2985 RMK A01 T00721010  RH  056%=      5-min Rain = 0
KBWS 100740Z 22010KT 07/M01 A2985 RMK A01 T00711011  RH  057%=      5-min Rain = 0
KBWS 100745Z 22010KT 07/M01 A2985 RMK A01 T00711010  RH  057%=      5-min Rain = 0
KBWS 100750Z 22010KT 07/M01 A2985 RMK A01 T00711011  RH  057%=      5-min Rain = 0
KBWS 100755Z 22010KT 07/M01 A2984 RMK A01 T00711011  RH  057%=      5-min Rain = 0
KBWS 100800Z 22010KT 07/M01 A2984 RMK A01 T00671012  RH  057%=      5-min Rain = 0
KBWS 100805Z 21009KT 07/M01 A2984 RMK A01 T00661012  RH  058%=      5-min Rain = 0
KBWS 100810Z 21011KT 07/M01 A2984 RMK A01 T00691011  RH  057%=      5-min Rain = 0
KBWS 100815Z 22011KT 07/M01 A2984 RMK A01 T00741009  RH  056%=      5-min Rain = 0
KBWS 100820Z 22010KT 07/M01 A2985 RMK A01 T00731010  RH  056%=      5-min Rain = 0
KBWS 100825Z 22011KT 07/M01 A2984 RMK A01 T00721010  RH  056%=      5-min Rain = 0
KBWS 100830Z 22012KT 07/M01 A2984 RMK A01 T00741010  RH  056%=      5-min Rain = 0
KBWS 100835Z 22011KT 07/M01 A2984 RMK A01 T00741009  RH  056%=      5-min Rain = 0
KBWS 100840Z 21011KT 07/M01 A2983 RMK A01 T00741009  RH  056%=      5-min Rain = 0
KBWS 100845Z 21011KT 07/M01 A2983 RMK A01 T00741008  RH  057%=      5-min Rain = 0
KBWS 100850Z 21011KT 08/M01 A2983 RMK A01 T00751007  RH  057%=      5-min Rain = 0
KBWS 100855Z 21011KT 08/M01 A2983 RMK A01 T00751007  RH  057%=      5-min Rain = 0
KBWS 100900Z 22010KT 08/M01 A2983 RMK A01 T00761006  RH  057%=      5-min Rain = 0
KBWS 100905Z 21010KT 07/M01 A2982 RMK A01 T00731007  RH  057%=      5-min Rain = 0
KBWS 100910Z 22009KT 07/M01 A2982 RMK A01 T00721007  RH  058%=      5-min Rain = 0
KBWS 100915Z 23009KT 07/M01 A2982 RMK A01 T00711008  RH  058%=      5-min Rain = 0
KBWS 100920Z 22008KT 07/M01 A2982 RMK A01 T00671009  RH  059%=      5-min Rain = 0
KBWS 100925Z 22008KT 06/M01 A2981 RMK A01 T00621012  RH  060%=      5-min Rain = 0
KBWS 100930Z 22008KT 06/M01 A2981 RMK A01 T00571013  RH  061%=      5-min Rain = 0
KBWS 100935Z 23008KT 06/M01 A2981 RMK A01 T00551013  RH  062%=      5-min Rain = 0
KBWS 100940Z 22008KT 06/M01 A2981 RMK A01 T00551013  RH  062%=      5-min Rain = 0
KBWS 100945Z 21009KT 05/M02 A2981 RMK A01 T00511015  RH  063%=      5-min Rain = 0
KBWS 100950Z 21008KT 05/M02 A2981 RMK A01 T00501015  RH  064%=      5-min Rain = 0
KBWS 100955Z 22007KT 05/M01 A2981 RMK A01 T00511014  RH  063%=      5-min Rain = 0
KBWS 101000Z 22008KT 05/M01 A2981 RMK A01 T00541013  RH  063%=      5-min Rain = 0
KBWS 101005Z 21009KT 06/M01 A2981 RMK A01 T00551013  RH  062%=      5-min Rain = 0
KBWS 101010Z 21009KT 06/M01 A2981 RMK A01 T00561011  RH  063%=      5-min Rain = 0
KBWS 101015Z 21008KT 06/M01 A2981 RMK A01 T00581010  RH  062%=      5-min Rain = 0
KBWS 101020Z 21008KT 05/M01 A2981 RMK A01 T00541012  RH  063%=      5-min Rain = 0
KBWS 101025Z 21008KT 05/M01 A2981 RMK A01 T00531012  RH  064%=      5-min Rain = 0
KBWS 101030Z 21008KT 05/M01 A298 RMK A01 T00541010  RH  064%=      5-min Rain = 0
KBWS 101035Z 21008KT 06/M01 A298 RMK A01 T00551010  RH  064%=      5-min Rain = 0
KBWS 101040Z 21008KT 05/M01 A298 RMK A01 T00541010  RH  064%=      5-min Rain = 0
KBWS 101045Z 21008KT 06/M01 A2979 RMK A01 T00591007  RH  064%=      5-min Rain = 0
KBWS 101050Z 21008KT 06/M01 A2979 RMK A01 T00621006  RH  063%=      5-min Rain = 0
KBWS 101055Z 22008KT 06/M01 A2979 RMK A01 T00591007  RH  063%=      5-min Rain = 0
KBWS 101100Z 21007KT 06/M01 A2979 RMK A01 T00561009  RH  064%=      5-min Rain = 0
KBWS 101105Z 20006KT 05/M01 A2979 RMK A01 T00531010  RH  065%=      5-min Rain = 0
KBWS 101110Z 21007KT 05/M01 A2979 RMK A01 T00521009  RH  065%=      5-min Rain = 0
KBWS 101115Z 22008KT 06/M01 A298 RMK A01 T00551007  RH  065%=      5-min Rain = 0
KBWS 101120Z 23008KT 06/M01 A298 RMK A01 T00581005  RH  065%=      5-min Rain = 0
KBWS 101125Z 23007KT 06/M01 A2979 RMK A01 T00601005  RH  064%=      5-min Rain = 0
KBWS 101130Z 23007KT 06/M01 A2979 RMK A01 T00591007  RH  063%=      5-min Rain = 0
KBWS 101135Z 23007KT 06/M01 A2979 RMK A01 T00561008  RH  064%=      5-min Rain = 0
KBWS 101140Z 23006KT 06/M01 A2979 RMK A01 T00561007  RH  065%=      5-min Rain = 0
KBWS 101145Z 23007KT 06/M01 A2979 RMK A01 T00561007  RH  065%=      5-min Rain = 0
KBWS 101150Z 23008KT 06/M01 A2979 RMK A01 T00571006  RH  064%=      5-min Rain = 0
KBWS 101155Z 23008KT 06/M01 A2979 RMK A01 T00591005  RH  064%=      5-min Rain = 0
KBWS 101200Z 24008KT 06/M01 A298 RMK A01 T00591005  RH  064%=      5-min Rain = 0
KBWS 101205Z 24008KT 06/M01 A2979 RMK A01 T00581006  RH  064%=      5-min Rain = 0
KBWS 101210Z 23007KT 06/M01 A2979 RMK A01 T00571006  RH  065%=      5-min Rain = 0
KBWS 101215Z 24008KT 06/M00 A2979 RMK A01 T00581004  RH  065%=      5-min Rain = 0
KBWS 101220Z 23006KT 06/M00 A2979 RMK A01 T00581004  RH  065%=      5-min Rain = 0
KBWS 101225Z 22006KT 06/M01 A2978 RMK A01 T00561006  RH  065%=      5-min Rain = 0
KBWS 101230Z 21006KT 05/M01 A2978 RMK A01 T00501009  RH  066%=      5-min Rain = 0
KBWS 101235Z 21006KT 05/M01 A2978 RMK A01 T00491008  RH  067%=      5-min Rain = 0
KBWS 101240Z 20007KT 05/M01 A2978 RMK A01 T00531005  RH  067%=      5-min Rain = 0
KBWS 101245Z 21008KT 06/00 A2978 RMK A01 T006000-0  RH  066%=      5-min Rain = 0
KBWS 101250Z 20009KT 07/00 A2977 RMK A01 T00660002  RH  064%=      5-min Rain = 0
KBWS 101255Z 20009KT 07/00 A2977 RMK A01 T00660002  RH  064%=      5-min Rain = 0
KBWS 101300Z 21009KT 07/00 A2978 RMK A01 T00660002  RH  064%=      5-min Rain = 0
KBWS 101305Z 20009KT 07/00 A2977 RMK A01 T00670003  RH  064%=      5-min Rain = 0
KBWS 101310Z 21009KT 07/00 A2977 RMK A01 T00670003  RH  064%=      5-min Rain = 0
KBWS 101315Z 21009KT 07/00 A2977 RMK A01 T00690004  RH  064%=      5-min Rain = 0
KBWS 101320Z 20009KT 07/00 A2977 RMK A01 T00690004  RH  064%=      5-min Rain = 0
KBWS 101325Z 19009KT 07/00 A2976 RMK A01 T00670003  RH  064%=      5-min Rain = 0
KBWS 101330Z 19009KT 06/00 A2976 RMK A01 T00640002  RH  065%=      5-min Rain = 0
KBWS 101335Z 18008KT 06/00 A2976 RMK A01 T00640003  RH  066%=      5-min Rain = 0
KBWS 101340Z 18008KT 06/00 A2976 RMK A01 T00620002  RH  066%=      5-min Rain = 0
KBWS 101345Z 18008KT 06/00 A2976 RMK A01 T00590000  RH  067%=      5-min Rain = 0
KBWS 101350Z 18008KT 06/M00 A2976 RMK A01 T00561001  RH  068%=      5-min Rain = 0
KBWS 101355Z 20008KT 06/00 A2976 RMK A01 T00570001  RH  068%=      5-min Rain = 0
KBWS 101400Z 20008KT 06/00 A2976 RMK A01 T00590002  RH  068%=      5-min Rain = 0
KBWS 101405Z 21008KT 06/00 A2976 RMK A01 T00600003  RH  068%=      5-min Rain = 0
KBWS 101410Z 21008KT 06/00 A2976 RMK A01 T00610004  RH  067%=      5-min Rain = 0
KBWS 101415Z 20009KT 06/00 A2976 RMK A01 T00600003  RH  068%=      5-min Rain = 0
KBWS 101420Z 20009KT 06/00 A2975 RMK A01 T00590003  RH  068%=      5-min Rain = 0
KBWS 101425Z 20008KT 06/00 A2976 RMK A01 T00570002  RH  069%=      5-min Rain = 0
KBWS 101430Z 20009KT 06/00 A2975 RMK A01 T00570003  RH  069%=      5-min Rain = 0
KBWS 101435Z 20008KT 06/00 A2975 RMK A01 T00570003  RH  069%=      5-min Rain = 0
KBWS 101440Z 19008KT 06/00 A2975 RMK A01 T00560002  RH  069%=      5-min Rain = 0
KBWS 101445Z 20009KT 06/00 A2975 RMK A01 T00560003  RH  069%=      5-min Rain = 0
KBWS 101450Z 20009KT 06/00 A2975 RMK A01 T00590004  RH  069%=      5-min Rain = 0
KBWS 101455Z 21009KT 06/01 A2976 RMK A01 T00640006  RH  067%=      5-min Rain = 0
KBWS 101500Z 20009KT 07/01 A2975 RMK A01 T00710008  RH  065%=      5-min Rain = 0
KBWS 101505Z 20008KT 07/01 A2975 RMK A01 T00740008  RH  064%=      5-min Rain = 0
KBWS 101510Z 20008KT 08/01 A2975 RMK A01 T00780009  RH  063%=      5-min Rain = 0
KBWS 101515Z 20008KT 08/01 A2975 RMK A01 T00840011  RH  061%=      5-min Rain = 0
KBWS 101520Z 20008KT 09/01 A2975 RMK A01 T00890012  RH  059%=      5-min Rain = 0
KBWS 101525Z 21009KT 10/01 A2975 RMK A01 T00950014  RH  057%=      5-min Rain = 0
KBWS 101530Z 21009KT 10/01 A2976 RMK A01 T01000014  RH  056%=      5-min Rain = 0
KBWS 101535Z 21011KT 11/02 A2976 RMK A01 T01060015  RH  054%=      5-min Rain = 0
KBWS 101540Z 20013KT 11/02 A2975 RMK A01 T01080015  RH  053%=      5-min Rain = 0
KBWS 101545Z 20013KT 11/02 A2975 RMK A01 T01100015  RH  053%=      5-min Rain = 0
KBWS 101550Z 21011KT 11/02 A2976 RMK A01 T01130016  RH  052%=      5-min Rain = 0
KBWS 101555Z 21011KT 12/02 A2976 RMK A01 T01160016  RH  051%=      5-min Rain = 0
KBWS 101600Z 21011KT 12/02 A2976 RMK A01 T01200017  RH  050%=      5-min Rain = 0
KBWS 101605Z 21011KT 12/02 A2976 RMK A01 T01240017  RH  049%=      5-min Rain = 0
KBWS 101610Z 21010KT 13/02 A2976 RMK A01 T01260018  RH  048%=      5-min Rain = 0
KBWS 101615Z 21012KT 13/02 A2976 RMK A01 T01320018  RH  046%=      5-min Rain = 0
KBWS 101620Z 21013G18KT 13/02 A2976 RMK A01 T01340018  RH  046%=      5-min Rain = 0
KBWS 101625Z 21013KT 14/02 A2976 RMK A01 T01400018  RH  044%=      5-min Rain = 0
KBWS 101630Z 21012KT 14/02 A2976 RMK A01 T01430018  RH  043%=      5-min Rain = 0
KBWS 101635Z 21013G18KT 14/02 A2976 RMK A01 T01430017  RH  043%=      5-min Rain = 0
KBWS 101640Z 20012KT 15/02 A2976 RMK A01 T01470018  RH  042%=      5-min Rain = 0
KBWS 101645Z 21013KT 15/02 A2976 RMK A01 T01490018  RH  042%=      5-min Rain = 0
KBWS 101650Z 21011KT 15/02 A2975 RMK A01 T01530016  RH  040%=      5-min Rain = 0
KBWS 101655Z 22012KT 16/02 A2975 RMK A01 T01550016  RH  040%=      5-min Rain = 0
KBWS 101700Z 21012KT 16/02 A2974 RMK A01 T01600016  RH  038%=      5-min Rain = 0
KBWS 101705Z 22012KT 16/02 A2974 RMK A01 T01610017  RH  038%=      5-min Rain = 0
KBWS 101710Z 21011KT 17/02 A2974 RMK A01 T01670018  RH  037%=      5-min Rain = 0
KBWS 101715Z 22012KT 17/02 A2974 RMK A01 T01670017  RH  037%=      5-min Rain = 0
KBWS 101720Z 22012KT 17/02 A2974 RMK A01 T01690018  RH  037%=      5-min Rain = 0
KBWS 101725Z 21012G17KT 17/02 A2973 RMK A01 T01740018  RH  035%=      5-min Rain = 0
KBWS 101730Z 21013KT 18/02 A2973 RMK A01 T01790018  RH  034%=      5-min Rain = 0
KBWS 101735Z 20012KT 18/02 A2973 RMK A01 T01820017  RH  034%=      5-min Rain = 0
KBWS 101740Z 21013KT 18/02 A2972 RMK A01 T01840017  RH  033%=      5-min Rain = 0
KBWS 101745Z 21014KT 19/02 A2972 RMK A01 T01900016  RH  031%=      5-min Rain = 0
KBWS 101750Z 21014KT 19/02 A2971 RMK A01 T01900015  RH  031%=      5-min Rain = 0
KBWS 101755Z 21013KT 20/01 A2971 RMK A01 T01950014  RH  030%=      5-min Rain = 0
KBWS 101800Z 21014KT 20/02 A2971 RMK A01 T01980016  RH  030%=      5-min Rain = 0
KBWS 101805Z 20014KT 20/02 A297 RMK A01 T02000017  RH  030%=      5-min Rain = 0
KBWS 101810Z 21014G19KT 20/02 A297 RMK A01 T02020017  RH  029%=      5-min Rain = 0
KBWS 101815Z 21015G22KT 21/02 A2969 RMK A01 T02070016  RH  028%=      5-min Rain = 0
KBWS 101820Z 22015G20KT 21/01 A2969 RMK A01 T02100012  RH  027%=      5-min Rain = 0
KBWS 101825Z 22014G20KT 21/01 A2968 RMK A01 T02100012  RH  027%=      5-min Rain = 0
KBWS 101830Z 22015KT 22/01 A2968 RMK A01 T02150012  RH  026%=      5-min Rain = 0
KBWS 101835Z 22017KT 22/01 A2967 RMK A01 T02180007  RH  025%=      5-min Rain = 0
KBWS 101840Z 23018G24KT 22/00 A2967 RMK A01 T02180003  RH  024%=      5-min Rain = 0
KBWS 101845Z 24016G21KT 22/00 A2966 RMK A01 T02170003  RH  024%=      5-min Rain = 0
KBWS 101850Z 24017G22KT 22/00 A2966 RMK A01 T02200003  RH  024%=      5-min Rain = 0
KBWS 101855Z 23018G25KT 22/00 A2965 RMK A01 T02220003  RH  024%=      5-min Rain = 0
KBWS 101900Z 24014G22KT 22/00 A2964 RMK A01 T02240002  RH  023%=      5-min Rain = 0
KBWS 101905Z 24016G22KT 23/00 A2964 RMK A01 T02250001  RH  023%=      5-min Rain = 0
KBWS 101910Z 22016G22KT 23/00 A2963 RMK A01 T02270002  RH  023%=      5-min Rain = 0
KBWS 101915Z 23017G22KT 23/00 A2963 RMK A01 T02280001  RH  022%=      5-min Rain = 0
KBWS 101920Z 24018G25KT 23/M00 A2962 RMK A01 T02321002  RH  021%=      5-min Rain = 0
KBWS 101925Z 24021G27KT 23/M01 A2961 RMK A01 T02291009  RH  021%=      5-min Rain = 0
KBWS 101930Z 24020G28KT 23/M01 A2961 RMK A01 T02311014  RH  020%=      5-min Rain = 0
KBWS 101935Z 24021G34KT 23/M01 A2961 RMK A01 T02311014  RH  020%=      5-min Rain = 0
KBWS 101940Z 24025G33KT 23/M02 A296 RMK A01 T02301021  RH  019%=      5-min Rain = 0
KBWS 101945Z 23026G35KT 23/M02 A296 RMK A01 T02311023  RH  018%=      5-min Rain = 0
KBWS 101950Z 24026G37KT 23/M02 A296 RMK A01 T02311024  RH  018%=      5-min Rain = 0
KBWS 101955Z 23026G37KT 23/M03 A296 RMK A01 T02301025  RH  018%=      5-min Rain = 0
KBWS 102000Z 23023G31KT 23/M02 A296 RMK A01 T02311021  RH  019%=      5-min Rain = 0
KBWS 102005Z 25024G31KT 23/M02 A2959 RMK A01 T02301017  RH  019%=      5-min Rain = 0
KBWS 102010Z 24025G36KT 23/M02 A2959 RMK A01 T02311015  RH  020%=      5-min Rain = 0
KBWS 102015Z 24023G33KT 23/M02 A2959 RMK A01 T02281017  RH  020%=      5-min Rain = 0
KBWS 102020Z 25021G28KT 23/M02 A2958 RMK A01 T02291016  RH  020%=      5-min Rain = 0
KBWS 102025Z 25022G30KT 23/M02 A2958 RMK A01 T02311020  RH  019%=      5-min Rain = 0
KBWS 102030Z 24026G35KT 23/M03 A2958 RMK A01 T02311025  RH  018%=      5-min Rain = 0
KBWS 102035Z 24025G32KT 23/M02 A2958 RMK A01 T02291021  RH  019%=      5-min Rain = 0
KBWS 102040Z 24028G36KT 23/M03 A2957 RMK A01 T02291029  RH  018%=      5-min Rain = 0
KBWS 102045Z 24025G34KT 22/M03 A2958 RMK A01 T02181025  RH  020%=      5-min Rain = 0
KBWS 102050Z 24026G34KT 22/M03 A2958 RMK A01 T02201030  RH  019%=      5-min Rain = 0
KBWS 102055Z 24024G32KT 22/M03 A2958 RMK A01 T02201027  RH  019%=      5-min Rain = 0
KBWS 102100Z 24025G36KT 22/M02 A2958 RMK A01 T02211018  RH  020%=      5-min Rain = 0
KBWS 102105Z 25024G29KT 22/M02 A2958 RMK A01 T02211017  RH  020%=      5-min Rain = 0
KBWS 102110Z 24025G31KT 21/M02 A2958 RMK A01 T02131021  RH  021%=      5-min Rain = 0
KBWS 102115Z 25023G31KT 22/M03 A2958 RMK A01 T02161025  RH  020%=      5-min Rain = 0
KBWS 102120Z 25025G34KT 21/M03 A2958 RMK A01 T02141027  RH  020%=      5-min Rain = 0
KBWS 102125Z 25023G29KT 21/M03 A2958 RMK A01 T02121025  RH  020%=      5-min Rain = 0
KBWS 102130Z 25024G30KT 21/M03 A2958 RMK A01 T02111027  RH  020%=      5-min Rain = 0
KBWS 102135Z 25022G30KT 21/M02 A2958 RMK A01 T02111024  RH  021%=      5-min Rain = 0
KBWS 102140Z 25023G29KT 21/M02 A2958 RMK A01 T02131022  RH  021%=      5-min Rain = 0
KBWS 102145Z 26026G32KT 21/M01 A2958 RMK A01 T02081013  RH  023%=      5-min Rain = 0
KBWS 102150Z 26025G35KT 20/M01 A2959 RMK A01 T02031010  RH  024%=      5-min Rain = 0
KBWS 102155Z 26027G35KT 20/M01 A2959 RMK A01 T02011008  RH  025%=      5-min Rain = 0
KBWS 102200Z 26028G37KT 20/01 A2959 RMK A01 T01970010  RH  029%=      5-min Rain = 0
KBWS 102205Z 26030G38KT 19/01 A296 RMK A01 T01930009  RH  029%=      5-min Rain = 0
KBWS 102210Z 28029G36KT 18/01 A2961 RMK A01 T01830014  RH  033%=      5-min Rain = 0
KBWS 102215Z 28028G37KT 18/02 A2961 RMK A01 T01760017  RH  035%=      5-min Rain = 0
KBWS 102220Z 29028G36KT 17/02 A2962 RMK A01 T01700016  RH  036%=      5-min Rain = 0
KBWS 102225Z 28026G32KT 17/02 A2962 RMK A01 T01670016  RH  036%=      5-min Rain = 0
KBWS 102230Z 28025G31KT 16/02 A2963 RMK A01 T01590016  RH  038%=      5-min Rain = 0
KBWS 102235Z 28026G33KT 16/02 A2963 RMK A01 T01570018  RH  039%=      5-min Rain = 0
KBWS 102240Z 28024G32KT 15/02 A2963 RMK A01 T01540022  RH  041%=      5-min Rain = 0
KBWS 102245Z 28024G30KT 15/02 A2963 RMK A01 T01510024  RH  043%=      5-min Rain = 0
KBWS 102250Z 27021G29KT 15/03 A2963 RMK A01 T01480026  RH  044%=      5-min Rain = 0
KBWS 102255Z 28023G32KT 15/02 A2963 RMK A01 T01490024  RH  043%=      5-min Rain = 0
KBWS 102300Z 27023G31KT 15/02 A2963 RMK A01 T01500020  RH  042%=      5-min Rain = 0
KBWS 102305Z 28026G33KT 15/02 A2963 RMK A01 T01470019  RH  042%=      5-min Rain = 0
KBWS 102310Z 27023G32KT 14/02 A2963 RMK A01 T01440019  RH  043%=      5-min Rain = 0
KBWS 102315Z 27021G34KT 14/02 A2963 RMK A01 T01410019  RH  044%=      5-min Rain = 0
KBWS 102320Z 27023G34KT 14/02 A2962 RMK A01 T01380019  RH  045%=      5-min Rain = 0
KBWS 102325Z 26021G26KT 14/02 A2963 RMK A01 T01350023  RH  047%=      5-min Rain = 0
KBWS 102330Z 25024G30KT 13/02 A2963 RMK A01 T01310023  RH  049%=      5-min Rain = 0
KBWS 102335Z 25025G32KT 13/02 A2964 RMK A01 T01270020  RH  049%=      5-min Rain = 0
KBWS 102340Z 25021G29KT 13/02 A2963 RMK A01 T01250016  RH  048%=      5-min Rain = 0
KBWS 102345Z 24019G26KT 12/01 A2964 RMK A01 T01240013  RH  047%=      5-min Rain = 0
KBWS 102350Z 23019G27KT 12/01 ANAN RMK A01 T01240012  RH  047%=      5-min Rain = 0
KBWS 102355Z 23018G23KT 12/01 A2964 RMK A01 T01230007  RH  046%=      5-min Rain = 0
KBWS 110000Z 23018KT 12/01 A2963 RMK A01 T01220006  RH  045%=      5-min Rain = 0
KBWS 110005Z 22018G24KT 12/01 A2962 RMK A01 T01200005  RH  046%=      5-min Rain = 0
KBWS 110010Z 23018G24KT 12/00 A2962 RMK A01 T01200003  RH  045%=      5-min Rain = 0
KBWS 110015Z 23018G24KT 12/00 A2963 RMK A01 T01200003  RH  045%=      5-min Rain = 0
KBWS 110020Z 23017G22KT 12/00 A2964 RMK A01 T01210002  RH  044%=      5-min Rain = 0
KBWS 110025Z 23018KT 12/00 A2964 RMK A01 T01210001  RH  044%=      5-min Rain = 0
KBWS 110030Z 24018G25KT 12/M00 A2964 RMK A01 T01211001  RH  044%=      5-min Rain = 0
KBWS 110035Z 24020G26KT 12/M00 A2964 RMK A01 T01191001  RH  044%=      5-min Rain = 0
KBWS 110040Z 24019G25KT 12/00 A2964 RMK A01 T011700-0  RH  045%=      5-min Rain = 0
KBWS 110045Z 25017G23KT 11/00 A2964 RMK A01 T011300-0  RH  046%=      5-min Rain = 0
KBWS 110050Z 25017G24KT 11/00 A2964 RMK A01 T01110001  RH  047%=      5-min Rain = 0
KBWS 110055Z 25015KT 11/00 A2964 RMK A01 T01090001  RH  048%=      5-min Rain = 0
KBWS 110100Z 24015KT 11/00 A2964 RMK A01 T01080002  RH  048%=      5-min Rain = 0
KBWS 110105Z 24013G20KT 11/00 A2964 RMK A01 T01070003  RH  049%=      5-min Rain = 0
KBWS 110110Z 24016G22KT 11/00 A2964 RMK A01 T01060004  RH  050%=      5-min Rain = 0
KBWS 110115Z 25017G23KT 11/01 A2963 RMK A01 T01050006  RH  051%=      5-min Rain = 0
KBWS 110120Z 25017G22KT 10/01 A2963 RMK A01 T01040009  RH  053%=      5-min Rain = 0
KBWS 110125Z 25016G21KT 10/01 A2963 RMK A01 T01010010  RH  054%=      5-min Rain = 0
KBWS 110130Z 24016KT 10/01 A2964 RMK A01 T01010011  RH  054%=      5-min Rain = 0
KBWS 110135Z 24016G21KT 10/01 A2963 RMK A01 T01000013  RH  055%=      5-min Rain = 0
KBWS 110140Z 24016KT 10/01 A2963 RMK A01 T00990014  RH  056%=      5-min Rain = 0
KBWS 110145Z 24015KT 10/02 A2964 RMK A01 T00980015  RH  057%=      5-min Rain = 0
KBWS 110150Z 24014KT 10/02 A2964 RMK A01 T00970015  RH  057%=      5-min Rain = 0
KBWS 110155Z 23012KT 10/02 A2964 RMK A01 T00950015  RH  058%=      5-min Rain = 0
KBWS 110200Z 23013KT 09/02 A2964 RMK A01 T00930015  RH  059%=      5-min Rain = 0
KBWS 110205Z 24012KT 09/02 A2964 RMK A01 T00910015  RH  059%=      5-min Rain = 0
KBWS 110210Z 24012KT 09/02 A2964 RMK A01 T00900015  RH  060%=      5-min Rain = 0
KBWS 110215Z 23012KT 09/02 A2965 RMK A01 T00890015  RH  061%=      5-min Rain = 0
KBWS 110220Z 23012KT 09/02 A2965 RMK A01 T00880016  RH  061%=      5-min Rain = 0
KBWS 110225Z 23011KT 09/02 A2964 RMK A01 T00870015  RH  061%=      5-min Rain = 0
KBWS 110230Z 23011KT 09/02 A2964 RMK A01 T00860015  RH  062%=      5-min Rain = 0
KBWS 110235Z 24010KT 09/02 A2964 RMK A01 T00850016  RH  062%=      5-min Rain = 0
KBWS 110240Z 25011KT 09/02 A2964 RMK A01 T00850016  RH  063%=      5-min Rain = 0
KBWS 110245Z 24011KT 08/02 A2964 RMK A01 T00840016  RH  063%=      5-min Rain = 0
KBWS 110250Z 24013KT 09/02 A2964 RMK A01 T00850016  RH  062%=      5-min Rain = 0
KBWS 110255Z 24012KT 09/02 A2964 RMK A01 T00860015  RH  062%=      5-min Rain = 0
KBWS 110300Z 24011KT 08/01 A2964 RMK A01 T00840014  RH  062%=      5-min Rain = 0
KBWS 110305Z 24011KT 08/01 A2964 RMK A01 T00810014  RH  063%=      5-min Rain = 0
KBWS 110310Z 23012KT 08/01 A2964 RMK A01 T00810013  RH  063%=      5-min Rain = 0
KBWS 110315Z 23011KT 08/01 A2964 RMK A01 T00820012  RH  062%=      5-min Rain = 0
KBWS 110320Z 23012KT 08/01 A2964 RMK A01 T00830011  RH  061%=      5-min Rain = 0
KBWS 110325Z 23011KT 08/01 A2963 RMK A01 T00800010  RH  062%=      5-min Rain = 0
KBWS 110330Z 23011KT 08/01 A2963 RMK A01 T00810010  RH  062%=      5-min Rain = 0
KBWS 110335Z 23011KT 08/01 A2964 RMK A01 T00820009  RH  061%=      5-min Rain = 0
KBWS 110340Z 23011KT 08/01 A2964 RMK A01 T00820009  RH  061%=      5-min Rain = 0
KBWS 110345Z 23011KT 08/01 A2964 RMK A01 T00840010  RH  061%=      5-min Rain = 0
KBWS 110350Z 23011KT 08/01 A2964 RMK A01 T00830011  RH  061%=      5-min Rain = 0
KBWS 110355Z 23011KT 08/01 A2964 RMK A01 T00810011  RH  062%=      5-min Rain = 0
KBWS 110400Z 23012KT 08/01 A2964 RMK A01 T00820012  RH  062%=      5-min Rain = 0
KBWS 110405Z 23012KT 08/01 A2964 RMK A01 T00820012  RH  062%=      5-min Rain = 0
KBWS 110410Z 23012KT 08/01 A2964 RMK A01 T00810013  RH  063%=      5-min Rain = 0
KBWS 110415Z 23011KT 08/01 A2963 RMK A01 T00790012  RH  064%=      5-min Rain = 0
KBWS 110420Z 23011KT 08/01 A2963 RMK A01 T00760012  RH  065%=      5-min Rain = 0
KBWS 110425Z 23012G17KT 08/01 A2963 RMK A01 T00760012  RH  065%=      5-min Rain = 0
KBWS 110430Z 23014G20KT 08/01 A2963 RMK A01 T00780012  RH  063%=      5-min Rain = 0
KBWS 110435Z 24016G21KT 08/01 A2963 RMK A01 T00810011  RH  062%=      5-min Rain = 0
KBWS 110440Z 23017KT 08/01 A2963 RMK A01 T00840010  RH  060%=      5-min Rain = 0
KBWS 110445Z 24018G24KT 09/01 A2963 RMK A01 T00870008  RH  058%=      5-min Rain = 0
KBWS 110450Z 24016KT 09/01 A2964 RMK A01 T00860007  RH  058%=      5-min Rain = 0
KBWS 110455Z 23017KT 09/01 A2964 RMK A01 T00870006  RH  058%=      5-min Rain = 0
KBWS 110500Z 23016G21KT 09/01 A2964 RMK A01 T00860005  RH  057%=      5-min Rain = 0
KBWS 110505Z 23017KT 09/00 A2964 RMK A01 T00870004  RH  057%=      5-min Rain = 0
KBWS 110510Z 23015G20KT 09/00 A2964 RMK A01 T00860003  RH  056%=      5-min Rain = 0
KBWS 110515Z 23016G22KT 09/00 A2964 RMK A01 T00870002  RH  056%=      5-min Rain = 0
KBWS 110520Z 23015KT 09/00 A2965 RMK A01 T00850001  RH  056%=      5-min Rain = 0
KBWS 110525Z 23013G18KT 08/00 A2965 RMK A01 T008200-0  RH  057%=      5-min Rain = 0
KBWS 110530Z 23016G21KT 08/00 A2965 RMK A01 T008300-0  RH  056%=      5-min Rain = 0
KBWS 110535Z 23016G21KT 09/M00 A2965 RMK A01 T00861001  RH  055%=      5-min Rain = 0
KBWS 110540Z 24017KT 09/M00 A2965 RMK A01 T00861002  RH  055%=      5-min Rain = 0
KBWS 110545Z 24017KT 09/M00 A2965 RMK A01 T00871002  RH  054%=      5-min Rain = 0
KBWS 110550Z 24017KT 09/M00 A2965 RMK A01 T00881002  RH  054%=      5-min Rain = 0
KBWS 110555Z 24017G22KT 09/M00 A2965 RMK A01 T00871003  RH  054%=      5-min Rain = 0

Page generated in 0.0089 seconds.